Time;durP1;ratioP1;P1;durP2;ratioP2;P2;SDS_P1;SDS_P2;PMS_P1;PMS_P2;Temp;Humidity;BMP_temperature;BMP_pressure;BME280_temperature;BME280_humidity;BME280_pressure;Samples;Min_cycle;Max_cycle;Signal;HPM_P1;HPM_P2
2022/05/26 00:46:52;;;;;;;34.23;24.00;;;;;;;16.75;100.00;93084.91;5046782;28;20862;-74
2022/05/26 00:49:38;;;;;;;36.10;25.77;;;;;;;16.78;100.00;93084.31;5054784;28;20208;-74
2022/05/26 00:52:10;;;;;;;39.40;26.10;;;;;;;16.76;100.00;93081.19;5048168;28;20236;-75
2022/05/26 00:54:37;;;;;;;32.27;24.73;;;;;;;16.60;100.00;93087.97;5046574;28;20721;-74
2022/05/26 00:57:10;;;;;;;43.27;27.47;;;;;;;16.63;100.00;93079.44;5048621;28;20218;-75
2022/05/26 00:59:46;;;;;;;41.57;26.47;;;;;;;16.66;100.00;93070.91;5048762;28;20189;-74
2022/05/26 01:02:14;;;;;;;40.63;26.73;;;;;;;16.76;100.00;93081.19;5048933;28;20285;-75
2022/05/26 01:04:47;;;;;;;39.50;25.57;;;;;;;16.61;100.00;93089.50;5047780;28;20210;-74
2022/05/26 01:07:19;;;;;;;40.03;27.27;;;;;;;16.33;100.00;93034.63;5048971;28;20244;-74
2022/05/26 01:09:45;;;;;;;37.27;26.30;;;;;;;16.59;100.00;93091.66;5051246;28;20194;-74
2022/05/26 01:12:11;;;;;;;32.13;23.87;;;;;;;16.49;100.00;93097.19;5054699;28;20296;-74
2022/05/26 01:15:11;;;;;;;34.20;24.73;;;;;;;16.40;100.00;93098.19;5056648;28;20197;-74
2022/05/26 01:18:11;;;;;;;36.30;25.27;;;;;;;16.46;100.00;93095.16;5034869;28;20280;-74
2022/05/26 01:21:00;;;;;;;38.10;23.77;;;;;;;16.43;100.00;93089.69;5046594;28;20264;-75
2022/05/26 01:23:32;;;;;;;39.13;26.43;;;;;;;16.36;100.00;93107.81;5035447;28;20221;-74
2022/05/26 01:26:28;;;;;;;37.83;26.00;;;;;;;16.36;100.00;93098.03;5040876;28;20243;-75
2022/05/26 01:29:15;;;;;;;37.13;25.33;;;;;;;16.31;100.00;93106.03;5054447;28;20220;-75
2022/05/26 01:32:04;;;;;;;36.30;25.23;;;;;;;16.26;100.00;93111.47;5053904;28;20227;-75
2022/05/26 01:34:59;;;;;;;36.83;24.87;;;;;;;16.29;100.00;93113.50;4998136;28;20206;-75
2022/05/26 01:37:47;;;;;;;34.67;25.77;;;;;;;16.35;100.00;93101.75;5050946;28;20281;-74
2022/05/26 01:40:45;;;;;;;42.17;26.93;;;;;;;16.32;100.00;93109.47;5052869;28;20250;-75
2022/05/26 01:43:47;;;;;;;41.77;25.87;;;;;;;16.31;100.00;93111.31;5055479;28;20284;-74
2022/05/26 01:46:28;;;;;;;43.80;26.37;;;;;;;16.31;100.00;93113.19;5053438;28;20237;-74
2022/05/26 01:49:18;;;;;;;39.27;26.60;;;;;;;16.24;100.00;93115.44;5055531;28;20201;-74
2022/05/26 01:51:51;;;;;;;38.20;25.37;;;;;;;16.16;100.00;93108.25;5054319;28;20229;-74
2022/05/26 01:54:19;;;;;;;45.87;25.57;;;;;;;16.18;100.00;93112.19;5054480;28;20182;-75
2022/05/26 01:56:48;;;;;;;34.47;25.37;;;;;;;16.25;100.00;93138.09;5052297;28;20256;-75
2022/05/26 01:59:27;;;;;;;32.80;25.53;;;;;;;16.16;100.00;93108.25;5054324;28;20254;-75
2022/05/26 02:02:02;;;;;;;35.53;24.33;;;;;;;16.29;100.00;93121.41;5054909;28;20225;-73
2022/05/26 02:04:34;;;;;;;42.07;25.43;;;;;;;16.25;100.00;93119.66;5054116;28;20256;-74
2022/05/26 02:07:34;;;;;;;36.20;24.33;;;;;;;16.34;100.00;93116.00;5054023;28;20237;-74
2022/05/26 02:10:06;;;;;;;36.67;23.63;;;;;;;16.07;100.00;93116.13;5053660;28;20198;-75
2022/05/26 02:12:37;;;;;;;36.53;25.27;;;;;;;16.05;100.00;93095.34;5054386;28;20189;-74
2022/05/26 02:15:19;;;;;;;33.77;24.30;;;;;;;16.17;100.00;93105.38;5064596;28;20189;-73
2022/05/26 02:17:50;;;;;;;31.87;24.43;;;;;;;16.12;100.00;93110.75;5074646;28;20193;-74
2022/05/26 02:20:46;;;;;;;37.93;25.97;;;;;;;16.19;100.00;93113.72;5074112;28;20364;-74
2022/05/26 02:23:35;;;;;;;36.10;25.10;;;;;;;16.04;100.00;93098.28;5064054;28;20220;-74
2022/05/26 02:26:02;;;;;;;42.40;26.70;;;;;;;15.82;100.00;93095.63;5070823;28;20312;-74
2022/05/26 02:29:50;;;;;;;35.20;25.70;;;;;;;15.66;100.00;93063.63;5071676;28;20198;-74
2022/05/26 02:31:16;;;;;;;37.87;25.60;;;;;;;15.89;100.00;93106.56;5070346;28;20213;-75
2022/05/26 02:33:43;;;;;;;41.17;26.77;;;;;;;15.75;100.00;93118.97;5071974;28;20205;-74
2022/05/26 02:36:08;;;;;;;40.37;26.23;;;;;;;15.89;100.00;93127.63;5070929;28;20221;-75
2022/05/26 02:38:34;;;;;;;33.77;25.60;;;;;;;16.00;100.00;93127.06;5072315;28;20391;-75
2022/05/26 02:41:01;;;;;;;36.53;25.30;;;;;;;15.73;100.00;93127.19;5069355;28;20226;-74
2022/05/26 02:43:31;;;;;;;37.47;25.53;;;;;;;15.55;100.00;93108.88;5071370;28;20181;-74
2022/05/26 02:46:12;;;;;;;30.77;22.70;;;;;;;15.78;100.00;93134.94;5070685;28;20241;-74
2022/05/26 02:48:58;;;;;;;38.93;24.70;;;;;;;15.61;100.00;93141.94;5071552;28;20192;-75
2022/05/26 02:51:32;;;;;;;36.20;24.90;;;;;;;15.74;100.00;93126.09;5069865;28;20235;-74
2022/05/26 02:54:14;;;;;;;35.37;25.17;;;;;;;15.72;100.00;93111.69;5070962;28;20210;-75
2022/05/26 02:56:51;;;;;;;37.73;25.53;;;;;;;15.75;100.00;93103.19;5070498;28;20296;-74
2022/05/26 02:59:26;;;;;;;37.43;23.17;;;;;;;15.71;100.00;93096.94;5068592;28;20216;-73
2022/05/26 03:02:08;;;;;;;34.57;23.87;;;;;;;15.65;100.00;93098.13;5069194;28;20228;-75
2022/05/26 03:05:20;;;;;;;36.57;22.83;;;;;;;15.96;100.00;93112.16;5069070;28;20200;-74
2022/05/26 03:07:51;;;;;;;34.80;23.77;;;;;;;16.15;100.00;93112.78;5037466;28;20236;-75
2022/05/26 03:10:21;;;;;;;37.60;24.30;;;;;;;16.09;100.00;93119.25;5069268;28;20257;-75
2022/05/26 03:12:47;;;;;;;32.80;22.57;;;;;;;15.98;100.00;93105.50;5070787;28;20194;-74
2022/05/26 03:15:12;;;;;;;33.60;22.67;;;;;;;16.07;100.00;93134.56;5069074;28;20222;-74
2022/05/26 03:17:38;;;;;;;33.53;21.93;;;;;;;16.10;100.00;93144.50;5070373;28;20185;-74
2022/05/26 03:20:04;;;;;;;29.37;21.30;;;;;;;16.09;100.00;93153.50;5069932;28;20208;-74
2022/05/26 03:22:29;;;;;;;35.23;22.27;;;;;;;16.14;100.00;93150.72;5070381;28;20189;-80
2022/05/26 03:24:55;;;;;;;30.23;21.93;;;;;;;16.26;100.00;93160.72;5069201;28;20202;-79
2022/05/26 03:27:20;;;;;;;29.73;23.20;;;;;;;16.02;100.00;93147.84;5070632;28;20275;-81
2022/05/26 03:29:46;;;;;;;31.63;22.53;;;;;;;16.43;100.00;93171.41;5071274;28;20270;-81
2022/05/26 03:32:12;;;;;;;35.23;21.00;;;;;;;16.36;100.00;93166.53;5069059;28;20251;-81
2022/05/26 03:42:51;;;;;;;31.10;21.50;;;;;;;16.48;100.00;93156.28;5070068;28;20212;-81
2022/05/26 03:45:23;;;;;;;34.50;21.73;;;;;;;16.62;99.58;93157.00;5069418;28;20261;-81
2022/05/26 03:47:49;;;;;;;28.87;21.00;;;;;;;16.67;98.52;93135.75;5029940;28;20211;-85
2022/05/26 03:50:15;;;;;;;30.87;20.77;;;;;;;16.75;99.01;93150.84;5033193;28;20241;-77
2022/05/26 03:52:41;;;;;;;33.93;22.97;;;;;;;16.87;98.90;93161.59;5048087;28;20178;-79
2022/05/26 03:55:07;;;;;;;32.00;22.53;;;;;;;16.97;97.90;93163.97;5048445;28;20221;-78
2022/05/26 03:57:32;;;;;;;28.83;21.93;;;;;;;16.86;98.92;93181.16;5049206;28;20196;-78
2022/05/26 03:59:58;;;;;;;33.27;20.90;;;;;;;17.15;97.49;93188.59;5048834;28;20198;-81
2022/05/26 04:02:25;;;;;;;33.57;22.10;;;;;;;17.28;96.63;93191.13;5048478;28;20178;-81
2022/05/26 04:04:50;;;;;;;33.93;21.47;;;;;;;17.44;95.64;93192.31;5049000;28;20209;-79
2022/05/26 04:07:16;;;;;;;27.83;20.60;;;;;;;17.44;95.24;93202.06;5047620;28;20225;-83
2022/05/26 04:09:42;;;;;;;36.60;21.53;;;;;;;17.12;96.83;93197.88;5049650;28;20257;-80
2022/05/26 04:12:09;;;;;;;38.83;24.20;;;;;;;17.41;96.71;93210.59;5048121;28;20241;-87
2022/05/26 04:14:34;;;;;;;35.67;25.53;;;;;;;17.56;95.66;93202.25;5049448;28;20186;-80
2022/05/26 04:17:00;;;;;;;37.10;24.20;;;;;;;17.75;93.90;93176.38;5048226;28;20233;-82
2022/05/26 04:19:25;;;;;;;38.17;25.60;;;;;;;17.74;94.30;93197.81;5047910;28;20190;-87
2022/05/26 04:24:35;;;;;;;37.93;24.90;;;;;;;18.32;90.76;93185.00;5048270;28;20196;-86
2022/05/26 04:27:01;;;;;;;31.37;23.40;;;;;;;18.59;88.75;93198.69;5047715;28;20242;-78
2022/05/26 04:29:28;;;;;;;34.10;24.73;;;;;;;18.81;87.61;93197.72;5048361;28;20198;-77
2022/05/26 04:31:53;;;;;;;34.43;22.93;;;;;;;19.23;84.86;93194.19;5047667;28;20241;-77
2022/05/26 04:34:19;;;;;;;35.80;23.43;;;;;;;19.42;84.10;93199.13;5047526;28;20188;-82
2022/05/26 04:36:46;;;;;;;40.77;22.33;;;;;;;19.60;82.52;93198.72;5046847;28;20229;-79
2022/05/26 04:39:11;;;;;;;32.83;22.37;;;;;;;20.03;80.75;93227.66;5049127;28;20250;-80
2022/05/26 04:41:37;;;;;;;35.77;23.63;;;;;;;20.25;79.79;93225.50;5046232;28;20226;-81
2022/05/26 04:44:03;;;;;;;33.47;22.70;;;;;;;20.45;79.06;93223.97;5047846;28;20189;-81
2022/05/26 04:46:28;;;;;;;31.57;23.83;;;;;;;20.52;78.87;93229.53;5057242;28;20227;-77
2022/05/26 04:48:53;;;;;;;36.33;21.77;;;;;;;20.58;78.14;93191.88;5067470;28;20198;-80
2022/05/26 04:51:19;;;;;;;39.40;25.40;;;;;;;20.98;76.98;93217.91;5065698;28;20212;-78
2022/05/26 04:53:45;;;;;;;47.63;28.90;;;;;;;21.28;75.37;93224.63;5075232;28;20195;-80
2022/05/26 04:56:11;;;;;;;39.90;26.30;;;;;;;21.60;73.57;93221.16;5066376;28;20280;-79
2022/05/26 04:58:37;;;;;;;34.58;23.52;;;;;;;21.84;72.62;93229.16;5067891;28;20197;-81
2022/05/26 05:01:16;;;;;;;33.50;24.02;;;;;;;22.05;70.39;93233.25;5067566;28;20767;-80
2022/05/26 05:03:42;;;;;;;31.20;23.90;;;;;;;21.97;71.44;93231.50;5067654;28;20175;-82
2022/05/26 05:06:07;;;;;;;31.30;23.42;;;;;;;21.88;70.91;93232.72;5067844;28;20226;-81
2022/05/26 05:08:33;;;;;;;35.83;23.98;;;;;;;21.77;71.28;93236.91;5068454;28;20193;-81
2022/05/26 05:10:58;;;;;;;32.53;23.05;;;;;;;22.14;70.54;93233.13;5067097;28;20226;-80
2022/05/26 05:13:24;;;;;;;38.30;22.40;;;;;;;22.19;69.01;93236.34;5068116;28;20236;-81
2022/05/26 05:16:23;;;;;;;36.28;23.73;;;;;;;22.05;70.21;93235.91;5067223;28;20224;-81
2022/05/26 05:18:50;;;;;;;33.60;22.20;;;;;;;22.16;69.09;93233.59;5048163;28;20277;-80
2022/05/26 05:21:23;;;;;;;31.58;21.30;;;;;;;22.44;67.67;93245.06;5067044;28;20288;-79
2022/05/26 05:23:55;;;;;;;33.17;22.73;;;;;;;22.66;67.41;93241.16;5067590;28;20216;-78
2022/05/26 05:26:22;;;;;;;31.42;23.05;;;;;;;24.05;61.60;93235.34;5067024;28;20238;-79
2022/05/26 05:28:57;;;;;;;29.92;21.00;;;;;;;25.81;56.05;93252.31;5067550;28;20214;-80
2022/05/26 05:31:30;;;;;;;26.38;20.70;;;;;;;25.52;56.13;93251.06;5066630;28;20236;-82
2022/05/26 05:34:04;;;;;;;30.38;19.35;;;;;;;26.37;52.99;93251.34;5066996;28;20267;-90
2022/05/26 05:36:34;;;;;;;27.08;20.05;;;;;;;26.20;54.94;93277.84;5067065;28;20230;-85
2022/05/26 05:39:02;;;;;;;29.70;20.23;;;;;;;25.88;56.05;93258.56;5067109;28;20306;-88
2022/05/26 05:41:28;;;;;;;29.40;22.70;;;;;;;26.64;55.57;93277.03;5067033;28;20231;-87
2022/05/26 05:43:56;;;;;;;27.38;20.30;;;;;;;28.82;50.06;93291.94;5067256;28;20211;-87
2022/05/26 05:46:22;;;;;;;25.73;19.83;;;;;;;32.84;38.42;93293.81;5041095;28;20246;-87
2022/05/26 05:48:48;;;;;;;26.45;19.73;;;;;;;33.87;36.24;93303.13;5048403;28;20207;-89
2022/05/26 05:51:15;;;;;;;27.42;18.95;;;;;;;28.31;46.33;93294.66;5047178;28;20232;-87
2022/05/26 05:53:42;;;;;;;26.98;19.67;;;;;;;28.36;47.92;93288.16;5048514;28;20226;-87
2022/05/26 05:56:09;;;;;;;27.02;19.95;;;;;;;26.65;51.47;93243.72;5047208;28;20225;-83
2022/05/26 05:58:34;;;;;;;31.33;20.67;;;;;;;27.86;49.53;93294.97;5051930;28;20180;-83
2022/05/26 06:01:00;;;;;;;32.90;20.27;;;;;;;29.87;45.17;93302.44;5051476;28;20229;-84
2022/05/26 06:03:31;;;;;;;23.40;19.35;;;;;;;32.72;38.52;93298.53;5050505;28;20187;-84
2022/05/26 06:06:04;;;;;;;33.22;18.63;;;;;;;31.15;40.21;93321.72;5050471;28;20232;-81
2022/05/26 06:08:30;;;;;;;28.65;20.23;;;;;;;34.19;33.59;93333.31;5049821;28;20243;-90
2022/05/26 06:10:55;;;;;;;31.90;18.10;;;;;;;34.95;32.63;93332.56;5045561;28;20379;-85
2022/05/26 06:13:21;;;;;;;22.52;16.23;;;;;;;32.24;36.63;93327.47;5051660;28;20201;-86
2022/05/26 06:15:46;;;;;;;24.90;18.30;;;;;;;31.22;39.88;93327.88;5049667;28;20230;-83
2022/05/26 06:18:16;;;;;;;25.70;18.50;;;;;;;28.76;45.00;93331.09;5051255;28;20189;-83
2022/05/26 06:20:42;;;;;;;27.55;18.58;;;;;;;27.07;48.24;93323.16;5049890;28;20285;-83
2022/05/26 06:23:08;;;;;;;26.38;18.58;;;;;;;26.29;50.25;93321.97;5051093;28;20261;-84
2022/05/26 06:25:33;;;;;;;23.13;18.20;;;;;;;25.47;52.48;93318.19;5050075;28;20224;-83
2022/05/26 06:30:43;;;;;;;21.25;17.38;;;;;;;25.47;51.60;93296.81;5050295;28;20233;-84
2022/05/26 06:38:41;;;;;;;26.60;18.42;;;;;;;25.88;53.57;93320.13;5050533;28;20205;-81
2022/05/26 06:43:54;;;;;;;28.65;19.17;;;;;;;25.74;55.00;93330.56;5050815;28;20204;-83
2022/05/26 06:46:19;;;;;;;22.83;19.15;;;;;;;25.79;54.81;93318.78;5054771;28;20289;-86
2022/05/26 06:48:46;;;;;;;29.42;19.58;;;;;;;25.81;54.20;93328.00;5070747;28;20186;-86
2022/05/26 06:51:11;;;;;;;27.40;18.98;;;;;;;25.41;55.86;93324.97;5070061;28;20244;-82
2022/05/26 06:53:38;;;;;;;28.15;19.88;;;;;;;25.12;57.32;93333.50;5070555;28;20174;-82
2022/05/26 06:56:04;;;;;;;29.42;20.02;;;;;;;24.60;57.70;93314.41;5070726;28;20220;-83
2022/05/26 06:58:31;;;;;;;32.28;21.45;;;;;;;24.59;57.80;93334.22;5070130;28;20187;-84
2022/05/26 07:00:57;;;;;;;34.38;21.38;;;;;;;24.66;57.55;93289.00;5078218;28;20389;-83
2022/05/26 07:03:23;;;;;;;34.10;22.60;;;;;;;24.02;59.34;93312.63;5070532;28;20189;-83
2022/05/26 07:05:50;;;;;;;30.42;21.85;;;;;;;24.37;58.88;93318.81;5062322;28;20232;-83
2022/05/26 07:08:16;;;;;;;31.98;22.52;;;;;;;24.53;59.27;93343.63;5050365;28;20216;-82
2022/05/26 07:10:42;;;;;;;32.83;22.83;;;;;;;23.73;62.71;93330.56;5048442;28;20216;-83
2022/05/26 07:13:07;;;;;;;31.55;21.77;;;;;;;24.43;60.78;93344.13;5050077;28;20180;-81
2022/05/26 07:15:33;;;;;;;25.42;20.10;;;;;;;24.56;60.04;93346.34;5049431;28;20223;-82
2022/05/26 07:17:58;;;;;;;31.05;21.73;;;;;;;24.89;57.94;93345.97;5050142;28;20264;-79
2022/05/26 07:20:24;;;;;;;24.25;19.35;;;;;;;24.25;58.33;93343.69;5049903;28;20231;-79
2022/05/26 07:22:49;;;;;;;19.48;16.77;;;;;;;24.03;55.69;93324.88;5049516;28;20513;-79
2022/05/26 07:25:15;;;;;;;28.77;16.65;;;;;;;24.10;57.48;93352.50;5050128;28;20279;-79
2022/05/26 07:27:42;;;;;;;17.45;15.45;;;;;;;24.19;55.83;93350.41;5050115;28;20230;-78
2022/05/26 07:30:10;;;;;;;16.55;14.85;;;;;;;23.94;55.08;93346.31;5049778;28;20207;-80
2022/05/26 07:32:35;;;;;;;18.92;14.07;;;;;;;23.81;54.14;93344.09;5049342;28;20203;-79
2022/05/26 07:35:01;;;;;;;16.20;12.88;;;;;;;23.91;51.79;93343.59;5049711;28;20197;-80
2022/05/26 07:42:55;;;;;;;14.23;9.13;;;;;;;24.22;44.29;93348.97;5050232;28;20199;-81
2022/05/26 07:45:22;;;;;;;10.07;8.93;;;;;;;25.05;43.60;93344.81;5049658;28;20227;-81
2022/05/26 07:47:47;;;;;;;9.32;8.63;;;;;;;24.20;41.50;93305.84;5067988;28;20232;-82
2022/05/26 07:50:20;;;;;;;9.38;8.43;;;;;;;24.43;42.43;93328.91;5069051;28;20219;-85
2022/05/26 07:52:50;;;;;;;10.50;7.93;;;;;;;24.69;42.61;93325.69;5052400;28;20199;-85
2022/05/26 07:55:18;;;;;;;8.60;7.97;;;;;;;24.85;41.68;93351.25;5069499;28;20236;-84
2022/05/26 07:57:44;;;;;;;9.00;8.23;;;;;;;24.90;41.39;93342.19;5052523;28;20196;-81
2022/05/26 08:00:11;;;;;;;8.90;8.30;;;;;;;24.99;41.51;93356.13;5068149;28;20200;-83
2022/05/26 08:02:37;;;;;;;8.98;8.38;;;;;;;24.91;42.70;93323.13;5069288;28;20200;-82
2022/05/26 08:05:05;;;;;;;9.00;8.20;;;;;;;25.09;41.96;93302.13;5069047;28;20197;-81
2022/05/26 08:07:30;;;;;;;8.90;8.10;;;;;;;25.36;43.09;93365.34;5051589;28;20216;-81
2022/05/26 08:09:56;;;;;;;9.82;9.07;;;;;;;25.08;41.82;93362.03;5068665;28;20220;-79
2022/05/26 08:12:21;;;;;;;9.55;8.50;;;;;;;25.31;42.33;93352.22;5069237;28;20279;-80
2022/05/26 08:14:47;;;;;;;10.38;9.43;;;;;;;24.68;43.11;93324.16;5067583;28;20298;-82
2022/05/26 08:17:14;;;;;;;9.25;8.50;;;;;;;25.24;42.74;93338.72;5069464;28;20233;-82
2022/05/26 08:19:40;;;;;;;10.50;8.48;;;;;;;25.34;43.76;93354.22;5068227;28;20176;-83
2022/05/26 08:22:06;;;;;;;8.88;8.27;;;;;;;25.89;44.46;93359.13;5069559;28;20238;-84
2022/05/26 08:24:31;;;;;;;9.68;8.57;;;;;;;25.77;43.38;93343.22;5068888;28;20177;-87
2022/05/26 08:26:57;;;;;;;8.48;7.97;;;;;;;25.45;43.90;93373.91;5068384;28;20237;-87
2022/05/26 08:29:22;;;;;;;9.02;8.25;;;;;;;25.21;41.91;93326.06;5069308;28;20192;-84
2022/05/26 08:31:48;;;;;;;9.57;8.88;;;;;;;25.78;42.16;93352.78;5068247;28;20216;-84
2022/05/26 08:34:14;;;;;;;9.25;8.55;;;;;;;25.68;43.00;93369.44;5066955;28;20256;-85
2022/05/26 08:36:40;;;;;;;9.60;8.73;;;;;;;25.57;42.40;93347.06;5067809;28;20229;-82
2022/05/26 08:39:06;;;;;;;9.73;8.77;;;;;;;25.58;44.08;93370.00;5068455;28;20197;-86
2022/05/26 08:41:44;;;;;;;9.55;8.40;;;;;;;25.39;44.47;93378.00;5067672;28;20259;-85
2022/05/26 08:44:31;;;;;;;9.10;8.38;;;;;;;25.86;43.18;93378.56;5065350;28;20216;-83
2022/05/26 08:47:21;;;;;;;9.85;8.55;;;;;;;25.99;43.63;93369.28;5068130;28;20248;-83
2022/05/26 08:50:07;;;;;;;9.13;8.43;;;;;;;26.40;42.64;93389.09;5053372;28;20208;-80
2022/05/26 08:52:38;;;;;;;9.68;8.93;;;;;;;26.01;41.28;93385.75;5069500;28;20272;-82
2022/05/26 08:55:07;;;;;;;9.82;9.13;;;;;;;26.09;40.66;93386.63;5069762;28;20201;-81
2022/05/26 08:57:40;;;;;;;9.95;8.98;;;;;;;26.22;40.69;93388.03;5068466;28;20189;-82
2022/05/26 09:00:11;;;;;;;9.35;8.57;;;;;;;25.77;39.67;93386.03;5067386;28;20207;-80
2022/05/26 09:02:37;;;;;;;9.02;8.27;;;;;;;26.10;41.22;93388.22;5068192;28;20198;-80
2022/05/26 09:05:18;;;;;;;12.88;9.00;;;;;;;26.17;40.08;93393.66;5067810;28;20189;-78
2022/05/26 09:13:45;;;;;;;9.07;8.25;;;;;;;25.90;38.91;93384.75;5068739;28;20196;-79
2022/05/26 09:16:12;;;;;;;9.32;8.38;;;;;;;25.71;40.71;93376.75;5067986;28;20225;-79
2022/05/26 09:18:39;;;;;;;9.30;8.50;;;;;;;25.45;37.64;93363.22;5068539;28;20165;-79
2022/05/26 09:21:13;;;;;;;8.70;7.90;;;;;;;25.71;39.34;93366.06;5068329;28;20225;-74
2022/05/26 09:23:42;;;;;;;9.30;7.97;;;;;;;26.09;37.40;93389.31;5066808;28;20164;-75
2022/05/26 09:26:11;;;;;;;9.18;8.50;;;;;;;26.15;36.13;93391.34;5066599;28;20332;-75
2022/05/26 09:28:45;;;;;;;8.70;7.93;;;;;;;26.09;37.78;93384.75;5067981;28;20193;-76
2022/05/26 09:31:22;;;;;;;9.02;8.25;;;;;;;26.21;37.64;93387.25;5067983;28;20272;-74
2022/05/26 09:34:09;;;;;;;8.57;7.95;;;;;;;26.37;37.52;93387.13;5071726;28;20195;-75
2022/05/26 09:36:45;;;;;;;9.07;8.38;;;;;;;26.12;35.21;93381.34;5071334;28;20254;-75
2022/05/26 09:39:11;;;;;;;10.77;8.40;;;;;;;26.04;36.01;93382.34;5071276;28;20199;-75
2022/05/26 09:41:42;;;;;;;9.02;8.27;;;;;;;26.32;34.72;93384.78;5068655;28;20293;-75
2022/05/26 09:44:20;;;;;;;10.02;8.57;;;;;;;26.46;37.90;93393.03;5070485;28;20190;-74
2022/05/26 09:46:50;;;;;;;8.63;7.90;;;;;;;25.85;37.13;93363.66;5069923;28;20240;-72
2022/05/26 09:49:15;;;;;;;10.75;9.65;;;;;;;25.94;36.25;93382.91;5070963;28;20186;-75
2022/05/26 09:51:44;;;;;;;8.38;7.80;;;;;;;25.82;36.84;93375.03;5070947;28;20229;-72
2022/05/26 09:54:39;;;;;;;8.35;7.63;;;;;;;26.04;34.32;93376.25;5071244;28;20185;-79
2022/05/26 09:57:16;;;;;;;8.57;7.80;;;;;;;26.26;36.02;93380.81;5057430;28;20230;-75
2022/05/26 09:59:42;;;;;;;9.27;8.50;;;;;;;26.38;35.84;93381.41;5070475;28;20181;-75
2022/05/26 10:02:28;;;;;;;8.38;7.82;;;;;;;26.12;35.17;93365.28;5070862;28;20262;-74
2022/05/26 10:05:09;;;;;;;9.70;9.00;;;;;;;26.30;37.12;93381.66;5071330;28;20192;-73
2022/05/26 10:07:54;;;;;;;9.27;8.48;;;;;;;26.44;37.43;93377.34;5070754;28;20225;-74
2022/05/26 10:10:28;;;;;;;9.35;8.65;;;;;;;26.55;37.22;93378.25;5070610;28;20228;-74
2022/05/26 10:13:15;;;;;;;8.25;7.78;;;;;;;26.36;34.68;93377.56;5070125;28;20184;-76
2022/05/26 10:16:01;;;;;;;8.60;7.82;;;;;;;26.42;36.42;93371.56;5070948;28;20236;-79
2022/05/26 10:18:35;;;;;;;10.65;8.50;;;;;;;26.34;35.24;93366.41;5070939;28;20177;-77
2022/05/26 10:21:23;;;;;;;8.43;7.82;;;;;;;26.21;34.26;93368.50;5069979;28;20239;-76
2022/05/26 10:24:06;;;;;;;8.73;8.05;;;;;;;26.35;35.78;93368.75;5071521;28;20245;-76
2022/05/26 10:26:38;;;;;;;9.18;8.25;;;;;;;26.46;36.00;93369.69;5070429;28;20225;-76
2022/05/26 10:29:06;;;;;;;9.40;8.55;;;;;;;26.41;35.47;93361.94;5068123;28;20202;-76
2022/05/26 10:31:52;;;;;;;9.05;8.45;;;;;;;26.52;34.46;93368.25;5070487;28;20256;-76
2022/05/26 10:34:47;;;;;;;9.75;8.95;;;;;;;26.54;33.62;93365.22;5069507;28;20192;-76
2022/05/26 10:37:34;;;;;;;9.45;8.60;;;;;;;26.30;34.58;93346.84;5069120;28;20221;-76
2022/05/26 10:40:25;;;;;;;8.93;8.23;;;;;;;26.53;33.39;93369.81;5066734;28;20220;-77
2022/05/26 10:43:00;;;;;;;8.55;8.05;;;;;;;26.85;31.92;93362.28;5069827;28;20197;-76
2022/05/26 10:45:45;;;;;;;8.90;7.60;;;;;;;26.90;33.38;93345.91;5067880;28;20225;-76
2022/05/26 10:48:58;;;;;;;9.68;8.52;;;;;;;26.85;33.55;93370.31;5069727;28;20197;-76
2022/05/26 10:51:31;;;;;;;8.88;8.20;;;;;;;26.57;34.38;93359.91;4958858;28;20275;-76
2022/05/26 10:54:08;;;;;;;9.32;8.52;;;;;;;26.42;35.05;93358.16;4952053;28;20271;-76
2022/05/26 10:56:47;;;;;;;9.85;8.82;;;;;;;26.54;35.81;93352.59;5016990;28;20240;-76
2022/05/26 10:59:21;;;;;;;8.85;8.20;;;;;;;26.77;35.42;93354.50;5051122;28;20241;-76
2022/05/26 11:02:00;;;;;;;10.07;8.88;;;;;;;26.83;35.74;93347.72;5050995;28;20225;-76
2022/05/26 11:04:54;;;;;;;8.43;7.85;;;;;;;26.74;35.54;93354.09;5051194;28;20190;-75
2022/05/26 11:07:32;;;;;;;11.10;9.98;;;;;;;26.64;38.32;93357.41;5050830;28;20217;-77
2022/05/26 11:10:05;;;;;;;10.90;10.00;;;;;;;26.46;39.47;93342.91;5050792;28;20197;-76
2022/05/26 11:13:16;;;;;;;9.98;9.27;;;;;;;26.53;39.24;93342.25;5050373;28;20181;-76
2022/05/26 11:19:20;;;;;;;9.90;9.10;;;;;;;26.13;41.40;93340.06;5050169;28;20264;-77
2022/05/26 11:21:46;;;;;;;9.50;8.80;;;;;;;26.36;42.07;93335.50;5013168;28;20256;-76
2022/05/26 11:24:12;;;;;;;8.88;8.00;;;;;;;26.67;42.11;93339.81;5061921;28;20197;-76
2022/05/26 11:26:49;;;;;;;9.45;8.85;;;;;;;26.56;42.64;93326.25;5067317;28;20232;-75
2022/05/26 11:29:20;;;;;;;9.40;8.57;;;;;;;26.57;41.81;93333.13;5054465;28;20201;-76
2022/05/26 11:37:58;;;;;;;9.02;8.30;;;;;;;26.67;40.12;93321.84;5070021;28;20289;-76
2022/05/26 11:40:42;;;;;;;8.75;8.02;;;;;;;26.77;39.86;93323.13;5069160;28;20279;-82
2022/05/26 11:43:07;;;;;;;10.50;9.23;;;;;;;26.88;39.62;93320.59;5066448;28;20191;-78
2022/05/26 11:45:37;;;;;;;9.40;8.70;;;;;;;26.94;38.78;93319.16;5069595;28;20249;-79
2022/05/26 11:48:31;;;;;;;8.98;8.43;;;;;;;26.88;39.44;93317.91;5052019;28;20224;-81
2022/05/26 11:50:59;;;;;;;9.40;8.80;;;;;;;26.64;39.53;93311.84;5068191;28;20305;-77
2022/05/26 11:53:27;;;;;;;10.15;9.23;;;;;;;26.83;39.73;93319.00;5068528;28;20189;-80
2022/05/26 11:55:55;;;;;;;9.68;8.77;;;;;;;26.82;40.20;93305.97;5068163;28;20806;-80
2022/05/26 11:58:29;;;;;;;9.75;8.98;;;;;;;26.73;39.72;93315.03;5068350;28;20190;-81
2022/05/26 12:01:19;;;;;;;9.48;8.55;;;;;;;26.88;39.96;93325.97;5067375;28;20221;-80
2022/05/26 12:03:48;;;;;;;8.93;8.35;;;;;;;26.97;40.47;93319.19;5067369;28;20177;-81
2022/05/26 12:06:16;;;;;;;12.73;7.82;;;;;;;27.14;39.84;93323.25;5067676;28;20235;-79
2022/05/26 12:08:53;;;;;;;12.05;8.95;;;;;;;27.12;39.77;93320.16;5068696;28;20190;-80
2022/05/26 12:11:22;;;;;;;9.15;8.45;;;;;;;27.35;39.91;93329.69;5068586;28;20219;-78
2022/05/26 12:14:03;;;;;;;8.65;8.15;;;;;;;27.21;39.17;93328.72;5069233;28;20185;-78
2022/05/26 12:16:29;;;;;;;9.07;8.38;;;;;;;27.08;40.26;93335.44;5068196;28;20252;-79
2022/05/26 12:19:04;;;;;;;10.75;8.82;;;;;;;27.37;40.03;93326.63;5069196;28;20207;-81
2022/05/26 12:21:29;;;;;;;9.70;8.90;;;;;;;26.94;41.49;93335.22;5050493;28;20262;-79
2022/05/26 12:23:56;;;;;;;10.80;8.80;;;;;;;27.05;41.26;93336.94;5069041;28;20189;-78
2022/05/26 12:26:22;;;;;;;8.52;7.80;;;;;;;27.01;41.93;93338.00;5068103;28;20237;-77
2022/05/26 12:28:47;;;;;;;9.77;8.75;;;;;;;27.09;42.68;93320.88;5068384;28;20200;-77
2022/05/26 12:31:13;;;;;;;10.10;9.20;;;;;;;26.53;42.16;93305.53;5068107;28;20236;-77
2022/05/26 12:34:09;;;;;;;13.27;11.98;;;;;;;27.44;41.37;93332.84;5076126;28;20190;-77
2022/05/26 12:36:58;;;;;;;9.05;8.35;;;;;;;27.83;40.91;93344.03;5067297;28;20260;-77
2022/05/26 12:39:30;;;;;;;9.88;8.95;;;;;;;27.80;41.00;93334.03;5069011;28;20697;-79
2022/05/26 12:42:13;;;;;;;10.50;8.18;;;;;;;28.15;39.72;93337.09;5067439;28;20225;-80
2022/05/26 12:45:12;;;;;;;9.65;8.85;;;;;;;28.13;39.33;93342.84;5067902;28;20299;-79
2022/05/26 12:47:53;;;;;;;9.00;8.20;;;;;;;28.36;39.01;93341.88;5067845;28;20294;-78
2022/05/26 12:50:22;;;;;;;9.23;8.63;;;;;;;28.22;37.04;93329.09;5068299;28;20295;-78
2022/05/26 12:52:57;;;;;;;10.45;9.25;;;;;;;27.99;38.57;93337.31;5067702;28;20189;-79
2022/05/26 12:55:38;;;;;;;9.63;8.82;;;;;;;27.71;39.38;93328.16;5067958;28;20240;-79
2022/05/26 12:58:06;;;;;;;9.60;9.00;;;;;;;27.58;40.78;93322.28;5067940;28;20200;-80
2022/05/26 13:00:34;;;;;;;10.48;9.55;;;;;;;27.44;41.90;93332.84;5066937;28;20247;-78
2022/05/26 13:03:08;;;;;;;9.50;8.60;;;;;;;27.24;42.50;93333.34;5067486;28;20204;-77
2022/05/26 13:05:40;;;;;;;11.43;9.98;;;;;;;27.47;42.22;93326.00;5066704;28;20293;-78
2022/05/26 13:08:14;;;;;;;9.50;8.80;;;;;;;27.24;41.63;93333.34;5067379;28;20205;-76
2022/05/26 13:10:41;;;;;;;11.30;9.20;;;;;;;26.71;42.95;93322.66;5067677;28;20263;-78
2022/05/26 13:13:16;;;;;;;9.57;8.98;;;;;;;26.57;43.42;93324.31;5066302;28;20204;-77
2022/05/26 13:15:42;;;;;;;9.52;9.00;;;;;;;26.76;43.90;93323.50;5066182;28;20229;-78